Time;durP1;ratioP1;P1;durP2;ratioP2;P2;SDS_P1;SDS_P2;PMS_P1;PMS_P2;Temp;Humidity;BMP_temperature;BMP_pressure;BME280_temperature;BME280_humidity;BME280_pressure;Samples;Min_cycle;Max_cycle;Signal;HPM_P1;HPM_P2
2021/07/26 00:00:21;;;;;;;7.17;6.53;;;18.40;99.90;;;;;;5124729;27;20181;-66
2021/07/26 00:02:47;;;;;;;6.97;6.33;;;18.40;99.90;;;;;;5129990;27;20574;-65
2021/07/26 00:05:13;;;;;;;6.70;6.20;;;18.30;99.90;;;;;;5115733;27;20208;-66
2021/07/26 00:07:39;;;;;;;7.63;6.87;;;18.30;99.90;;;;;;5112312;28;20544;-66
2021/07/26 00:10:06;;;;;;;7.47;6.93;;;18.20;99.90;;;;;;5127864;27;20172;-65
2021/07/26 00:12:33;;;;;;;6.60;6.10;;;18.20;99.90;;;;;;5133251;27;20666;-67
2021/07/26 00:14:59;;;;;;;6.77;6.37;;;18.20;99.90;;;;;;5130063;27;20180;-66
2021/07/26 00:17:26;;;;;;;7.10;6.70;;;18.10;99.90;;;;;;5132933;27;20566;-65
2021/07/26 00:19:51;;;;;;;6.13;5.73;;;18.10;99.90;;;;;;5203449;22;20249;-66
2021/07/26 00:22:17;;;;;;;7.07;6.67;;;18.10;99.90;;;;;;5121579;27;20591;-66
2021/07/26 00:24:43;;;;;;;6.67;6.17;;;18.10;99.90;;;;;;5113216;28;20201;-66
2021/07/26 00:27:08;;;;;;;6.67;6.27;;;18.10;99.90;;;;;;5123287;27;20224;-66
2021/07/26 00:29:34;;;;;;;7.20;6.50;;;18.00;99.90;;;;;;5134111;27;20593;-66
2021/07/26 00:31:59;;;;;;;7.43;6.93;;;18.00;99.90;;;;;;5124099;27;20177;-66
2021/07/26 00:34:28;;;;;;;6.97;6.47;;;17.90;99.90;;;;;;5127677;27;20172;-66
2021/07/26 00:36:56;;;;;;;6.77;6.20;;;17.90;99.90;;;;;;5092534;28;20264;-65
2021/07/26 00:39:24;;;;;;;6.73;6.13;;;17.90;99.90;;;;;;5092771;28;20276;-65
2021/07/26 00:41:52;;;;;;;6.70;6.20;;;17.80;99.90;;;;;;5123682;27;20192;-66
2021/07/26 00:44:19;;;;;;;7.30;6.70;;;17.90;99.90;;;;;;5126927;27;20200;-66
2021/07/26 00:46:46;;;;;;;6.47;6.07;;;17.80;99.90;;;;;;5127067;27;20169;-66
2021/07/26 00:49:14;;;;;;;6.70;6.30;;;17.80;99.90;;;;;;5133452;27;20192;-66
2021/07/26 00:51:42;;;;;;;6.83;6.43;;;17.80;99.90;;;;;;5126824;27;20587;-66
2021/07/26 00:54:08;;;;;;;6.53;6.13;;;17.80;99.90;;;;;;5112915;28;20280;-66
2021/07/26 00:56:35;;;;;;;6.20;5.80;;;17.80;99.90;;;;;;5128560;27;20182;-66
2021/07/26 00:59:01;;;;;;;6.90;6.30;;;17.80;99.90;;;;;;5117153;27;20201;-65
2021/07/26 01:01:27;;;;;;;6.27;5.97;;;17.80;99.90;;;;;;5126936;27;20175;-65
2021/07/26 01:03:53;;;;;;;7.10;6.50;;;17.80;99.90;;;;;;5113827;27;20185;-65
2021/07/26 01:06:19;;;;;;;7.40;7.00;;;17.90;99.90;;;;;;5119901;27;20176;-65
2021/07/26 01:08:45;;;;;;;7.43;6.73;;;18.00;99.90;;;;;;5132936;27;20196;-65
2021/07/26 01:11:11;;;;;;;7.33;6.83;;;18.00;99.90;;;;;;5129043;27;20176;-65
2021/07/26 01:13:37;;;;;;;6.87;6.37;;;18.00;99.90;;;;;;5117055;27;20176;-66
2021/07/26 01:16:04;;;;;;;6.70;6.30;;;18.00;99.90;;;;;;5128239;27;20184;-66
2021/07/26 01:18:30;;;;;;;6.90;6.47;;;18.00;99.90;;;;;;5131220;27;20168;-66
2021/07/26 01:21:02;;;;;;;6.63;6.23;;;18.00;99.90;;;;;;5117396;27;20540;-66
2021/07/26 01:23:34;;;;;;;5.80;5.50;;;18.00;99.90;;;;;;5118687;27;20196;-66
2021/07/26 01:26:02;;;;;;;6.70;6.30;;;18.00;99.90;;;;;;5111991;28;20709;-65
2021/07/26 01:28:32;;;;;;;6.97;6.47;;;18.00;99.90;;;;;;5120729;27;20181;-66
2021/07/26 01:30:58;;;;;;;6.53;6.10;;;18.00;99.90;;;;;;5131073;27;20164;-66
2021/07/26 01:33:24;;;;;;;7.20;6.80;;;18.10;99.90;;;;;;5120606;27;20707;-66
2021/07/26 01:35:51;;;;;;;6.60;6.20;;;18.10;99.90;;;;;;5112821;28;20287;-67
2021/07/26 01:38:17;;;;;;;6.37;5.93;;;18.10;99.90;;;;;;5091720;28;20268;-65
2021/07/26 01:40:49;;;;;;;6.20;5.80;;;18.00;99.90;;;;;;5091567;28;20177;-66
2021/07/26 01:43:16;;;;;;;6.53;6.13;;;18.00;99.90;;;;;;5128868;27;20172;-66
2021/07/26 01:45:52;;;;;;;6.97;6.47;;;17.90;99.90;;;;;;5130340;27;20302;-66
2021/07/26 01:48:40;;;;;;;7.17;6.70;;;17.80;99.90;;;;;;5130004;27;20183;-66
2021/07/26 01:51:18;;;;;;;6.80;6.40;;;17.70;99.90;;;;;;5096308;28;20178;-66
2021/07/26 01:53:44;;;;;;;7.17;6.70;;;17.70;99.90;;;;;;5117079;27;20173;-65
2021/07/26 01:56:12;;;;;;;6.70;6.20;;;17.70;99.90;;;;;;5123109;27;20299;-65
2021/07/26 01:58:38;;;;;;;6.93;6.53;;;17.70;99.90;;;;;;5132201;28;20200;-66
2021/07/26 02:01:03;;;;;;;7.40;6.77;;;17.70;99.90;;;;;;5113285;28;20547;-65
2021/07/26 02:03:30;;;;;;;7.30;6.80;;;17.70;99.90;;;;;;5116378;28;20188;-66
2021/07/26 02:05:56;;;;;;;7.10;6.60;;;17.60;99.90;;;;;;5110886;28;20215;-66
2021/07/26 02:08:21;;;;;;;7.00;6.50;;;17.60;99.90;;;;;;5115128;28;20631;-67
2021/07/26 02:10:47;;;;;;;7.10;6.60;;;17.60;99.90;;;;;;5110831;28;20635;-67
2021/07/26 02:13:12;;;;;;;6.40;6.00;;;17.60;99.90;;;;;;5121724;28;20183;-66
2021/07/26 02:15:40;;;;;;;6.83;6.17;;;17.60;99.90;;;;;;5118887;28;20180;-66
2021/07/26 02:18:05;;;;;;;5.93;5.53;;;17.60;99.90;;;;;;5136117;27;20195;-67
2021/07/26 02:20:31;;;;;;;6.37;5.97;;;17.60;99.90;;;;;;5121463;27;20685;-66
2021/07/26 02:22:56;;;;;;;6.77;5.93;;;17.60;99.90;;;;;;5127661;27;20223;-66
2021/07/26 02:25:22;;;;;;;7.27;6.67;;;17.60;99.90;;;;;;5115553;28;20207;-66
2021/07/26 02:27:48;;;;;;;7.13;6.53;;;17.60;99.90;;;;;;5128203;27;20540;-66
2021/07/26 02:30:14;;;;;;;6.37;6.00;;;17.60;99.90;;;;;;5121339;27;20188;-66
2021/07/26 02:32:39;;;;;;;7.40;6.90;;;17.60;99.90;;;;;;5120392;27;20180;-67
2021/07/26 02:35:05;;;;;;;7.10;6.50;;;17.60;99.90;;;;;;5119313;27;20582;-66
2021/07/26 02:37:31;;;;;;;6.37;5.97;;;17.60;99.90;;;;;;5121847;27;20268;-66
2021/07/26 02:39:57;;;;;;;6.60;6.20;;;17.60;99.90;;;;;;5117673;27;20264;-66
2021/07/26 02:42:23;;;;;;;7.00;6.40;;;17.50;99.90;;;;;;5122921;27;20181;-66
2021/07/26 02:44:49;;;;;;;6.57;6.17;;;17.50;99.90;;;;;;5134541;27;20257;-66
2021/07/26 02:47:14;;;;;;;6.80;6.40;;;17.50;99.90;;;;;;5134176;27;20180;-66
2021/07/26 02:49:40;;;;;;;7.57;6.87;;;17.50;99.90;;;;;;5135735;27;20199;-66
2021/07/26 02:52:06;;;;;;;7.37;6.80;;;17.50;99.90;;;;;;5132826;27;20661;-66
2021/07/26 02:54:31;;;;;;;7.10;6.60;;;17.50;99.90;;;;;;5134057;27;20207;-66
2021/07/26 02:56:57;;;;;;;7.00;6.37;;;17.50;99.90;;;;;;5135503;27;20229;-65
2021/07/26 02:59:23;;;;;;;6.20;5.80;;;17.50;99.90;;;;;;5135517;27;20194;-66
2021/07/26 03:01:51;;;;;;;6.87;6.40;;;17.50;99.90;;;;;;5125899;27;20274;-66
2021/07/26 03:04:17;;;;;;;7.20;6.70;;;17.50;99.90;;;;;;5135553;27;20200;-66
2021/07/26 03:06:42;;;;;;;7.63;7.00;;;17.50;99.90;;;;;;5122665;27;20712;-66
2021/07/26 03:09:08;;;;;;;6.67;6.27;;;17.40;99.90;;;;;;5135457;27;20268;-66
2021/07/26 03:11:36;;;;;;;6.63;6.13;;;17.50;99.90;;;;;;5123327;27;20184;-65
2021/07/26 03:14:01;;;;;;;6.53;6.10;;;17.50;99.90;;;;;;5121991;27;20180;-66
2021/07/26 03:16:27;;;;;;;7.30;6.80;;;17.50;99.90;;;;;;5135048;27;20203;-65
2021/07/26 03:18:53;;;;;;;6.97;6.50;;;17.50;99.90;;;;;;5133244;27;20745;-66
2021/07/26 03:21:18;;;;;;;6.57;6.07;;;17.50;99.90;;;;;;5126370;27;20184;-65
2021/07/26 03:23:44;;;;;;;7.20;6.70;;;17.50;99.90;;;;;;5135220;27;20180;-66
2021/07/26 03:26:10;;;;;;;7.80;7.27;;;17.60;99.90;;;;;;5127186;27;20204;-66
2021/07/26 03:28:35;;;;;;;6.67;6.17;;;17.50;99.90;;;;;;5124902;27;20700;-66
2021/07/26 03:31:02;;;;;;;6.70;6.13;;;17.50;99.90;;;;;;5130421;27;20181;-66
2021/07/26 03:33:28;;;;;;;6.83;6.37;;;17.50;99.90;;;;;;5135095;27;20232;-65
2021/07/26 03:35:53;;;;;;;6.80;6.30;;;17.50;99.90;;;;;;5130572;27;20214;-66
2021/07/26 03:38:20;;;;;;;6.53;6.13;;;17.50;99.90;;;;;;5133334;27;20194;-66
2021/07/26 03:40:47;;;;;;;6.63;6.13;;;17.50;99.90;;;;;;5114116;28;20260;-65
2021/07/26 03:43:13;;;;;;;6.30;5.83;;;17.50;99.90;;;;;;5123508;27;20173;-66
2021/07/26 03:45:38;;;;;;;6.60;6.13;;;17.50;99.90;;;;;;5133026;27;20234;-66
2021/07/26 03:48:04;;;;;;;6.53;6.13;;;17.50;99.90;;;;;;5115957;27;20181;-67
2021/07/26 03:50:30;;;;;;;7.03;6.60;;;17.50;99.90;;;;;;5132261;27;20196;-67
2021/07/26 03:52:57;;;;;;;7.87;6.73;;;17.50;99.90;;;;;;5116778;27;20173;-67
2021/07/26 03:55:40;;;;;;;6.40;5.90;;;17.50;99.90;;;;;;5118027;27;20226;-66
2021/07/26 03:58:06;;;;;;;6.97;6.40;;;17.50;99.90;;;;;;5134605;27;20175;-66
2021/07/26 04:00:32;;;;;;;7.13;6.57;;;17.60;99.90;;;;;;5132644;27;20211;-67
2021/07/26 04:05:40;;;;;;;6.60;6.10;;;17.60;99.90;;;;;;5134105;27;20203;-67
2021/07/26 04:08:12;;;;;;;8.90;7.07;;;17.50;99.90;;;;;;5115004;27;20172;-66
2021/07/26 04:10:41;;;;;;;7.40;6.87;;;17.60;99.90;;;;;;5129218;27;20200;-67
2021/07/26 04:13:06;;;;;;;7.27;6.77;;;17.60;99.90;;;;;;5121552;27;20198;-66
2021/07/26 04:15:32;;;;;;;6.73;6.13;;;17.60;99.90;;;;;;5133905;27;20172;-67
2021/07/26 04:17:57;;;;;;;7.40;6.60;;;17.70;99.90;;;;;;5128126;27;20259;-66
2021/07/26 04:20:23;;;;;;;7.50;6.80;;;17.70;99.90;;;;;;5133964;27;20247;-66
2021/07/26 04:22:49;;;;;;;7.90;7.30;;;17.80;99.90;;;;;;5129725;27;20192;-66
2021/07/26 04:25:15;;;;;;;7.83;7.20;;;17.80;99.90;;;;;;5113839;27;20203;-67
2021/07/26 04:27:40;;;;;;;8.43;7.60;;;17.90;99.90;;;;;;5118181;27;20528;-67
2021/07/26 04:30:07;;;;;;;7.03;6.53;;;18.00;99.90;;;;;;5125056;27;20211;-66
2021/07/26 04:32:46;;;;;;;7.50;6.90;;;18.00;99.90;;;;;;5119122;27;20185;-66
2021/07/26 04:35:13;;;;;;;7.27;6.77;;;18.10;99.90;;;;;;5124895;27;20180;-66
2021/07/26 04:37:39;;;;;;;8.57;7.17;;;18.10;99.90;;;;;;5128504;27;20214;-65
2021/07/26 04:40:05;;;;;;;7.37;6.87;;;18.10;99.90;;;;;;5130993;27;20646;-67
2021/07/26 04:42:31;;;;;;;7.27;6.77;;;18.10;99.90;;;;;;5125843;27;20176;-65
2021/07/26 04:44:56;;;;;;;6.67;6.27;;;18.10;99.90;;;;;;5112885;28;20290;-66
2021/07/26 04:47:22;;;;;;;7.37;6.83;;;18.20;99.90;;;;;;5125550;27;20188;-65
2021/07/26 04:49:48;;;;;;;8.07;7.50;;;18.20;99.90;;;;;;5133432;27;20188;-66
2021/07/26 04:52:13;;;;;;;7.57;6.83;;;18.20;99.90;;;;;;5124256;27;20639;-67
2021/07/26 04:54:39;;;;;;;7.63;6.90;;;18.30;99.90;;;;;;5125024;27;20181;-67
2021/07/26 04:57:05;;;;;;;7.67;7.17;;;18.40;99.90;;;;;;5112529;28;20180;-66
2021/07/26 04:59:30;;;;;;;7.57;7.00;;;18.40;99.90;;;;;;5113866;27;20220;-66
2021/07/26 05:01:56;;;;;;;7.50;6.90;;;18.50;99.90;;;;;;5126378;27;20546;-66
2021/07/26 05:04:22;;;;;;;7.60;7.00;;;18.60;99.90;;;;;;5117835;27;20205;-66
2021/07/26 05:06:47;;;;;;;7.80;6.70;;;18.70;99.90;;;;;;5112178;28;20523;-66
2021/07/26 05:09:13;;;;;;;7.53;6.77;;;18.70;99.90;;;;;;5130507;27;20264;-66
2021/07/26 05:11:40;;;;;;;8.07;7.33;;;18.80;99.90;;;;;;5127666;27;20581;-65
2021/07/26 05:14:07;;;;;;;7.70;7.10;;;18.90;99.90;;;;;;5120898;27;20670;-65
2021/07/26 05:16:34;;;;;;;7.00;6.50;;;18.90;99.90;;;;;;5130068;27;20171;-66
2021/07/26 05:19:00;;;;;;;7.27;6.67;;;19.00;99.90;;;;;;5117655;27;20201;-66
2021/07/26 05:21:25;;;;;;;8.07;7.47;;;19.00;99.90;;;;;;5120739;27;20531;-66
2021/07/26 05:23:51;;;;;;;8.13;7.63;;;19.00;99.90;;;;;;5113509;27;20218;-68
2021/07/26 05:26:17;;;;;;;7.43;6.93;;;19.10;99.90;;;;;;5112045;28;20218;-68
2021/07/26 05:28:42;;;;;;;7.53;6.93;;;19.20;99.90;;;;;;5130568;27;20231;-67
2021/07/26 05:31:08;;;;;;;7.07;6.47;;;19.20;99.90;;;;;;5132918;27;20689;-67
2021/07/26 05:33:34;;;;;;;7.13;6.63;;;19.30;99.90;;;;;;5115776;27;20260;-66
2021/07/26 05:35:59;;;;;;;8.03;7.53;;;19.40;99.90;;;;;;5112913;28;20735;-68
2021/07/26 05:38:25;;;;;;;7.93;7.23;;;19.40;99.90;;;;;;5132699;27;20183;-67
2021/07/26 05:40:50;;;;;;;7.47;6.87;;;19.50;99.90;;;;;;5127876;27;20180;-67
2021/07/26 05:43:16;;;;;;;8.47;7.20;;;19.70;99.90;;;;;;5128108;27;20229;-66
2021/07/26 05:45:42;;;;;;;7.73;7.00;;;19.80;99.90;;;;;;5126652;27;20195;-68
2021/07/26 05:48:07;;;;;;;7.13;6.67;;;19.80;99.90;;;;;;5115471;27;20268;-68
2021/07/26 05:50:33;;;;;;;7.03;6.47;;;20.00;99.90;;;;;;5124494;27;20187;-67
2021/07/26 05:53:02;;;;;;;8.37;7.60;;;20.20;99.90;;;;;;5114207;28;20539;-67
2021/07/26 05:55:30;;;;;;;7.47;5.97;;;20.40;99.90;;;;;;5123261;28;20444;-68
2021/07/26 05:57:57;;;;;;;7.40;6.80;;;20.70;99.90;;;;;;5115650;28;20571;-67
2021/07/26 06:00:35;;;;;;;7.18;6.68;;;21.00;99.90;;;;;;5111750;28;20196;-68
2021/07/26 06:03:01;;;;;;;8.23;7.63;;;21.20;99.90;;;;;;5121733;28;20227;-67
2021/07/26 06:05:26;;;;;;;6.95;6.50;;;21.30;99.90;;;;;;5110125;28;20216;-68
2021/07/26 06:07:53;;;;;;;7.30;6.70;;;21.30;99.90;;;;;;5113442;28;20172;-68
2021/07/26 06:10:19;;;;;;;7.43;6.83;;;21.40;99.90;;;;;;5129955;28;20240;-68
2021/07/26 06:12:44;;;;;;;7.50;7.00;;;21.30;99.90;;;;;;5113443;28;20185;-68
2021/07/26 06:15:10;;;;;;;7.15;6.65;;;21.30;99.90;;;;;;5132707;28;20183;-68
2021/07/26 06:17:36;;;;;;;7.43;6.83;;;21.30;99.90;;;;;;5116936;28;20229;-68
2021/07/26 06:20:03;;;;;;;6.60;6.10;;;21.30;99.90;;;;;;5126454;22;20308;-66
2021/07/26 06:22:30;;;;;;;7.10;6.50;;;21.30;99.90;;;;;;5093228;28;20577;-66
2021/07/26 06:24:55;;;;;;;7.28;6.78;;;21.40;99.90;;;;;;5097683;28;20197;-66
2021/07/26 06:27:21;;;;;;;6.47;5.88;;;21.50;99.90;;;;;;5107718;28;20644;-66
2021/07/26 06:29:48;;;;;;;6.30;5.80;;;21.70;99.90;;;;;;5072942;28;20343;-66
2021/07/26 06:32:14;;;;;;;7.10;6.50;;;21.80;99.90;;;;;;5090859;28;20180;-66
2021/07/26 06:34:40;;;;;;;5.78;5.47;;;21.90;99.90;;;;;;5090990;28;20174;-67
2021/07/26 06:37:06;;;;;;;6.13;5.72;;;22.00;99.90;;;;;;5090663;28;20179;-66
2021/07/26 06:39:32;;;;;;;5.75;5.45;;;22.30;99.90;;;;;;5090701;28;20243;-66
2021/07/26 06:41:57;;;;;;;6.72;5.63;;;22.80;99.90;;;;;;5091202;28;20169;-66
2021/07/26 06:44:23;;;;;;;6.05;5.55;;;22.90;99.90;;;;;;5081905;28;20550;-66
2021/07/26 06:46:49;;;;;;;6.47;5.93;;;22.90;99.90;;;;;;5070409;28;20263;-66
2021/07/26 06:49:15;;;;;;;6.10;5.72;;;22.80;99.90;;;;;;5087231;28;20208;-66
2021/07/26 06:51:41;;;;;;;5.38;5.00;;;22.70;99.90;;;;;;5090975;28;20545;-66
2021/07/26 06:54:07;;;;;;;6.05;5.60;;;22.70;99.90;;;;;;5090836;28;20177;-66
2021/07/26 06:56:32;;;;;;;5.97;5.57;;;22.60;99.90;;;;;;5090602;28;20173;-66
2021/07/26 06:58:58;;;;;;;6.43;6.03;;;22.60;99.90;;;;;;5090535;28;20178;-66
2021/07/26 07:01:23;;;;;;;6.25;5.68;;;22.90;99.90;;;;;;5090326;28;20524;-66
2021/07/26 07:03:49;;;;;;;6.20;5.70;;;23.30;99.90;;;;;;5094071;28;20161;-66
2021/07/26 07:06:16;;;;;;;6.03;5.53;;;23.60;99.90;;;;;;5094032;28;20565;-66
2021/07/26 07:08:43;;;;;;;6.15;5.65;;;23.80;99.90;;;;;;5092980;28;20196;-66
2021/07/26 07:23:46;;;;;;;6.15;5.65;;;23.80;99.90;;;;;;5068315;28;20909;-66
2021/07/26 07:26:12;;;;;;;6.22;5.82;;;24.60;99.90;;;;;;5067851;28;20232;-65
2021/07/26 07:28:38;;;;;;;6.18;5.78;;;24.90;99.90;;;;;;5068472;28;20661;-66
2021/07/26 07:31:04;;;;;;;6.32;5.78;;;25.20;99.90;;;;;;5068397;28;20204;-65
2021/07/26 07:33:30;;;;;;;5.57;5.18;;;25.60;99.90;;;;;;5066635;28;20194;-65
2021/07/26 07:35:55;;;;;;;6.10;5.60;;;26.00;99.90;;;;;;5129913;23;20222;-67
2021/07/26 07:38:21;;;;;;;5.20;4.80;;;26.10;99.90;;;;;;5048511;28;20546;-66
2021/07/26 07:40:46;;;;;;;5.45;5.15;;;26.20;99.90;;;;;;5048542;28;20254;-67
2021/07/26 07:43:12;;;;;;;5.88;5.43;;;26.20;99.90;;;;;;5048068;28;20190;-66
2021/07/26 07:45:38;;;;;;;5.28;4.85;;;26.30;99.90;;;;;;5035541;28;20195;-66
2021/07/26 07:48:04;;;;;;;5.45;5.05;;;26.40;99.90;;;;;;5026440;28;20638;-67
2021/07/26 07:50:30;;;;;;;5.47;4.60;;;26.40;99.90;;;;;;5019968;28;20172;-67
2021/07/26 07:52:57;;;;;;;5.88;5.47;;;26.40;99.90;;;;;;5027306;28;20242;-68
2021/07/26 07:55:23;;;;;;;5.50;5.20;;;26.10;99.90;;;;;;5028155;28;20199;-68
2021/07/26 07:57:51;;;;;;;5.43;5.13;;;26.40;99.90;;;;;;5028363;28;20168;-67
2021/07/26 08:00:18;;;;;;;5.80;5.40;;;26.90;99.90;;;;;;5027438;28;20184;-67
2021/07/26 08:02:44;;;;;;;5.15;4.85;;;27.30;99.90;;;;;;5027765;28;20229;-67
2021/07/26 08:05:10;;;;;;;5.90;5.50;;;27.30;99.90;;;;;;5028032;28;20274;-67
2021/07/26 08:07:36;;;;;;;5.15;4.75;;;27.20;99.90;;;;;;5026508;28;20183;-67
2021/07/26 08:10:03;;;;;;;4.90;4.50;;;27.40;99.90;;;;;;5027847;28;20186;-67
2021/07/26 08:12:29;;;;;;;5.15;4.75;;;27.50;99.90;;;;;;5025517;28;20310;-67
2021/07/26 08:14:55;;;;;;;4.85;4.55;;;27.80;99.90;;;;;;5027669;28;20698;-67
2021/07/26 08:17:20;;;;;;;5.05;4.75;;;27.70;99.90;;;;;;5027533;28;20175;-68
2021/07/26 08:19:46;;;;;;;5.32;5.03;;;27.50;99.90;;;;;;5026380;28;20172;-67
2021/07/26 08:22:11;;;;;;;5.43;5.10;;;27.20;99.90;;;;;;5027081;28;20319;-67
2021/07/26 08:24:38;;;;;;;5.15;4.85;;;26.80;99.90;;;;;;5014792;28;20199;-67
2021/07/26 08:27:04;;;;;;;5.55;5.15;;;26.80;99.90;;;;;;5012976;28;20191;-67
2021/07/26 08:29:30;;;;;;;5.32;5.00;;;26.90;99.90;;;;;;5014783;28;20258;-67
2021/07/26 08:31:55;;;;;;;4.97;4.68;;;27.50;99.90;;;;;;5014051;28;20286;-67
2021/07/26 08:34:21;;;;;;;5.68;5.38;;;27.70;99.90;;;;;;5013951;28;20222;-68
2021/07/26 08:36:46;;;;;;;5.30;4.85;;;27.80;99.90;;;;;;5013975;28;20655;-67
2021/07/26 08:39:12;;;;;;;5.28;4.88;;;27.80;99.90;;;;;;5014581;28;20222;-67
2021/07/26 08:41:38;;;;;;;5.10;4.80;;;27.70;99.90;;;;;;5014151;28;20179;-68
2021/07/26 08:44:05;;;;;;;5.78;5.28;;;27.50;99.90;;;;;;5013961;28;20643;-67
2021/07/26 08:46:32;;;;;;;5.05;4.65;;;27.40;99.90;;;;;;5014123;28;20270;-68
2021/07/26 08:48:58;;;;;;;5.10;4.68;;;27.20;99.90;;;;;;5014761;28;20229;-69
2021/07/26 08:51:26;;;;;;;5.45;5.05;;;27.10;99.90;;;;;;5014209;28;20200;-67
2021/07/26 08:53:51;;;;;;;4.45;4.15;;;26.70;99.90;;;;;;5014016;28;20173;-67
2021/07/26 08:56:20;;;;;;;5.50;5.20;;;26.30;99.90;;;;;;5013800;28;20559;-67
2021/07/26 08:58:46;;;;;;;4.80;4.50;;;26.10;99.90;;;;;;5014045;28;20173;-67
2021/07/26 09:01:13;;;;;;;4.88;4.57;;;25.90;99.90;;;;;;5013877;28;20180;-66
2021/07/26 09:03:39;;;;;;;5.22;4.82;;;25.50;99.90;;;;;;5013588;28;20553;-66
2021/07/26 09:06:05;;;;;;;5.80;5.30;;;25.40;99.90;;;;;;5013567;28;20678;-67
2021/07/26 09:08:38;;;;;;;5.25;4.88;;;25.20;99.90;;;;;;5013844;28;20168;-67
2021/07/26 09:11:05;;;;;;;5.65;5.25;;;24.90;99.90;;;;;;5013316;28;20168;-67
2021/07/26 09:13:45;;;;;;;4.88;4.57;;;25.00;99.90;;;;;;5013626;28;20173;-67
2021/07/26 09:16:17;;;;;;;5.05;4.65;;;25.10;99.90;;;;;;5011346;28;20271;-66
2021/07/26 09:18:44;;;;;;;5.50;5.10;;;25.60;99.90;;;;;;5013243;28;20214;-67
2021/07/26 09:21:09;;;;;;;4.80;4.50;;;25.90;99.90;;;;;;5012902;28;20570;-67
2021/07/26 09:23:39;;;;;;;4.35;4.15;;;26.30;99.90;;;;;;5012955;28;20168;-67
2021/07/26 09:26:24;;;;;;;4.55;4.35;;;26.50;99.90;;;;;;4993649;28;20188;-66
2021/07/26 09:28:50;;;;;;;5.30;5.00;;;26.60;99.90;;;;;;4994992;28;20514;-68
2021/07/26 09:31:16;;;;;;;4.70;4.45;;;26.60;99.90;;;;;;5013047;28;20180;-67
2021/07/26 09:33:42;;;;;;;4.50;4.20;;;26.80;99.90;;;;;;5012682;28;20172;-67
2021/07/26 09:36:19;;;;;;;5.40;5.00;;;27.40;99.90;;;;;;5011812;28;20210;-68
2021/07/26 09:39:02;;;;;;;5.25;4.95;;;28.20;99.90;;;;;;5012747;28;20574;-66
2021/07/26 09:41:44;;;;;;;4.80;4.50;;;28.60;99.90;;;;;;5013095;28;20239;-66
2021/07/26 09:44:10;;;;;;;4.80;4.50;;;28.50;99.90;;;;;;4992504;28;20177;-67
2021/07/26 09:46:39;;;;;;;4.75;4.45;;;28.40;99.90;;;;;;5011809;28;20175;-67
2021/07/26 09:49:15;;;;;;;4.90;4.60;;;28.50;99.90;;;;;;5012154;28;20218;-67
2021/07/26 09:51:42;;;;;;;4.80;4.60;;;28.20;99.90;;;;;;5012351;28;20211;-67
2021/07/26 09:54:08;;;;;;;7.15;6.57;;;27.90;99.90;;;;;;5012613;28;20187;-66
2021/07/26 09:56:34;;;;;;;5.30;5.00;;;27.80;99.90;;;;;;5012693;28;20211;-67
2021/07/26 09:59:03;;;;;;;5.13;4.82;;;27.70;99.90;;;;;;5012802;28;20180;-67
2021/07/26 10:01:29;;;;;;;4.70;4.32;;;27.80;99.90;;;;;;5012855;28;20535;-67
2021/07/26 10:03:56;;;;;;;4.25;4.03;;;28.60;99.90;;;;;;5012506;28;20168;-67
2021/07/26 10:06:22;;;;;;;4.32;4.05;;;29.50;99.90;;;;;;5012639;28;20667;-67
2021/07/26 10:08:48;;;;;;;4.30;4.00;;;30.60;99.90;;;;;;5011640;28;20219;-67
2021/07/26 10:11:15;;;;;;;4.97;4.57;;;31.60;99.90;;;;;;5011083;28;20226;-68
2021/07/26 10:13:43;;;;;;;4.50;4.10;;;31.90;99.90;;;;;;5010516;28;20172;-67
2021/07/26 10:16:17;;;;;;;4.05;3.80;;;31.40;99.90;;;;;;5011959;28;20659;-68
2021/07/26 10:18:50;;;;;;;4.07;3.88;;;31.00;99.90;;;;;;5012217;28;20179;-68
2021/07/26 10:21:17;;;;;;;4.35;4.15;;;30.20;99.90;;;;;;5011038;28;20262;-67
2021/07/26 10:23:54;;;;;;;4.22;3.92;;;29.40;99.90;;;;;;5011756;28;20176;-67
2021/07/26 10:26:30;;;;;;;5.18;4.70;;;28.70;99.90;;;;;;5012208;28;20199;-67
2021/07/26 10:28:56;;;;;;;4.68;4.38;;;28.30;99.90;;;;;;5010769;28;20518;-66
2021/07/26 10:31:27;;;;;;;5.63;5.00;;;28.00;99.90;;;;;;5010685;28;20211;-67
2021/07/26 10:34:14;;;;;;;4.20;4.00;;;27.80;99.90;;;;;;5011730;28;20530;-67
2021/07/26 10:36:40;;;;;;;4.75;4.45;;;27.40;99.90;;;;;;5012237;28;20179;-67
2021/07/26 10:39:06;;;;;;;5.30;4.90;;;27.20;99.90;;;;;;5011237;28;20168;-67
2021/07/26 10:41:52;;;;;;;5.32;5.03;;;27.10;99.90;;;;;;5012177;28;20583;-67
2021/07/26 10:44:17;;;;;;;4.75;4.45;;;27.20;99.90;;;;;;5003968;28;20192;-67
2021/07/26 10:47:06;;;;;;;4.57;4.28;;;27.40;99.90;;;;;;5011936;28;20667;-67
2021/07/26 10:49:35;;;;;;;4.88;4.60;;;27.40;99.90;;;;;;5011834;28;20176;-66
2021/07/26 10:52:01;;;;;;;5.43;5.03;;;27.50;99.90;;;;;;5012237;28;20631;-67
2021/07/26 10:54:36;;;;;;;5.57;5.28;;;27.40;99.90;;;;;;5011725;28;20211;-67
2021/07/26 10:57:02;;;;;;;5.40;5.10;;;27.20;99.90;;;;;;5011588;28;20183;-67
2021/07/26 10:59:50;;;;;;;5.22;4.88;;;27.20;99.90;;;;;;5011553;28;20595;-67
2021/07/26 11:02:35;;;;;;;5.53;5.13;;;27.40;99.90;;;;;;5010167;28;20219;-66
2021/07/26 11:05:25;;;;;;;5.32;4.82;;;27.50;99.90;;;;;;5011342;28;20200;-67
2021/07/26 11:08:13;;;;;;;5.18;4.78;;;27.50;99.90;;;;;;5011899;28;20214;-67
2021/07/26 11:10:45;;;;;;;5.25;4.75;;;27.50;99.90;;;;;;5009598;28;20184;-66
2021/07/26 11:13:11;;;;;;;5.47;5.18;;;27.60;99.90;;;;;;5011276;28;20236;-66
2021/07/26 11:15:51;;;;;;;4.80;4.50;;;27.90;99.90;;;;;;5011454;28;20262;-66
2021/07/26 11:18:31;;;;;;;5.28;4.97;;;28.30;99.90;;;;;;5011573;28;20658;-69
2021/07/26 11:21:10;;;;;;;4.88;4.57;;;28.80;99.90;;;;;;5011353;28;20172;-67
2021/07/26 11:23:36;;;;;;;5.45;5.15;;;29.20;99.90;;;;;;4999742;28;20175;-66
2021/07/26 11:26:03;;;;;;;5.93;5.45;;;29.30;99.90;;;;;;5011195;28;20200;-67
2021/07/26 11:28:37;;;;;;;4.80;4.50;;;29.20;99.90;;;;;;5011379;28;20176;-66
2021/07/26 11:31:04;;;;;;;5.60;5.30;;;28.90;99.90;;;;;;5011186;28;20635;-67
2021/07/26 11:33:31;;;;;;;6.07;5.75;;;28.70;99.90;;;;;;5011174;28;20412;-66
2021/07/26 11:36:00;;;;;;;5.90;5.50;;;28.90;99.90;;;;;;5011317;28;20211;-68
2021/07/26 11:38:29;;;;;;;5.18;4.88;;;29.10;99.90;;;;;;5011056;28;20187;-67
2021/07/26 11:40:55;;;;;;;5.00;4.68;;;29.20;99.90;;;;;;5010171;28;20168;-67
2021/07/26 11:43:34;;;;;;;5.00;4.70;;;29.60;99.90;;;;;;5009519;28;20556;-67
2021/07/26 11:46:00;;;;;;;4.60;4.30;;;29.70;99.90;;;;;;5011143;28;20234;-67
2021/07/26 11:48:27;;;;;;;5.22;4.93;;;29.80;99.90;;;;;;5011237;28;20188;-67
2021/07/26 11:50:53;;;;;;;4.50;4.30;;;30.10;99.90;;;;;;5011509;28;20180;-67
2021/07/26 11:53:27;;;;;;;5.15;4.85;;;30.40;99.90;;;;;;5009646;28;20350;-67
2021/07/26 11:55:52;;;;;;;4.47;4.28;;;30.60;99.90;;;;;;5010477;28;20231;-67
2021/07/26 11:58:27;;;;;;;5.70;5.25;;;30.70;99.90;;;;;;5012133;28;20222;-67
2021/07/26 12:00:54;;;;;;;5.85;5.38;;;30.50;99.90;;;;;;5014080;28;20593;-67
2021/07/26 12:03:23;;;;;;;5.15;4.68;;;29.90;99.90;;;;;;5014026;28;20241;-67
2021/07/26 12:05:59;;;;;;;5.00;4.70;;;29.60;99.90;;;;;;5016023;28;20271;-67
2021/07/26 12:08:27;;;;;;;4.90;4.50;;;29.30;99.90;;;;;;5014710;28;20556;-67
2021/07/26 12:10:53;;;;;;;5.63;5.22;;;29.20;99.90;;;;;;5014372;28;20314;-66
2021/07/26 12:13:21;;;;;;;6.10;5.65;;;28.90;99.90;;;;;;5013858;28;20302;-67
2021/07/26 12:16:12;;;;;;;5.40;5.00;;;28.80;99.90;;;;;;5014811;28;20184;-67
2021/07/26 12:18:37;;;;;;;6.35;5.95;;;28.60;99.90;;;;;;4994745;28;20189;-67
2021/07/26 12:21:04;;;;;;;5.53;5.03;;;28.20;99.90;;;;;;4994939;28;20187;-67
2021/07/26 12:23:32;;;;;;;5.05;4.75;;;27.80;99.90;;;;;;5013780;28;20195;-67
2021/07/26 12:26:04;;;;;;;5.53;5.07;;;27.70;99.90;;;;;;5013910;28;20199;-67
2021/07/26 12:28:40;;;;;;;9.73;5.13;;;27.50;99.90;;;;;;5013830;28;20181;-67
2021/07/26 12:31:25;;;;;;;5.30;4.97;;;27.70;99.90;;;;;;5013449;28;20190;-67
2021/07/26 12:34:18;;;;;;;5.50;5.15;;;28.20;99.90;;;;;;5014197;28;20247;-67
2021/07/26 12:36:45;;;;;;;5.63;4.72;;;28.60;99.90;;;;;;5014405;28;20198;-67
2021/07/26 12:39:12;;;;;;;5.80;5.40;;;28.40;99.90;;;;;;5014152;28;20168;-68
2021/07/26 12:41:39;;;;;;;5.13;4.82;;;28.60;99.90;;;;;;5014709;28;20223;-67
2021/07/26 12:44:20;;;;;;;6.07;5.70;;;28.80;99.90;;;;;;5013884;28;20639;-68
2021/07/26 12:46:47;;;;;;;5.40;5.00;;;29.20;99.90;;;;;;5014214;28;20179;-68
2021/07/26 12:49:21;;;;;;;4.50;4.30;;;29.70;99.90;;;;;;5013914;28;20196;-67
2021/07/26 12:51:49;;;;;;;4.60;4.30;;;30.70;99.90;;;;;;5014151;28;20184;-68
2021/07/26 12:54:15;;;;;;;4.93;4.63;;;31.90;99.90;;;;;;5013816;28;20179;-67
2021/07/26 12:56:41;;;;;;;4.80;4.50;;;33.10;99.90;;;;;;5014166;28;20157;-68
2021/07/26 12:59:07;;;;;;;4.97;4.68;;;33.60;99.90;;;;;;5013738;28;20172;-67
2021/07/26 13:01:33;;;;;;;5.05;4.75;;;33.80;99.90;;;;;;5013904;28;20176;-67
2021/07/26 13:03:59;;;;;;;5.28;4.97;;;33.80;99.90;;;;;;5013497;28;20207;-67
2021/07/26 13:06:24;;;;;;;4.57;4.28;;;33.80;99.90;;;;;;5013962;28;20247;-67